Terminal Aerodrome Forecast
Issued by NWS

Current Version | Previous Version | Text Only | Print | Product List | Glossary On
Versions: 1 2 3 4 5 6 7 8 9 10 11 12 13 14 15 16 17
000
FTUS42 KMLB 011134
TAFFPR
TAF
KFPR 011134Z 0112/0212 18009KT P6SM VCSH FEW035 BKN070 BKN110
     FM011800 22012G18KT P6SM VCTS SCT030CB BKN060 BKN150
      TEMPO 0121/0124 4SM TSRA BKN025CB BKN035
     FM020000 19005KT P6SM VCSH FEW025 BKN150 BKN250=

USA.gov is the U.S. government's official web portal to all federal, state and local government web resources and services.